Lakewood, WA

2:28 PM PST on January 19, 2017 (GMT -0800)
Hillgrove South West | | Change Station

Elev 251 ft 47.17 °N, 122.53 °W | Updated 4 seconds ago

Overcast
Overcast
47.8 °F
Feels Like 48 °F
N
0.2
Wind Variable Wind from WNW
Gusts 2.5 mph

Today
High -- | Low -- °F
--% Chance of Precip.
Yesterday
High -- | Low -- °F
Precip. -- in
Pressure 29.50 in
Visibility 10.0 miles
Clouds Mostly Cloudy 3100 ft
Overcast 3900 ft
Windchill 48 °F
Dew Point 40 °F
Humidity 75%
Rainfall 0.11 in
Snow Depth Not available.
7:48 AM 4:53 PM
Waning Gibbous, 50% visible
SPECI KTCM 192221Z AUTO 19014KT 10SM -RA BKN031 OVC039 09/07 A2950 RMK AO2 RAB2159E08RAB21
Pressure 29.50 in
Visibility 10.0 miles
Clouds Mostly Cloudy 3100 ft
Overcast 3900 ft
Windchill 48 °F
Dew Point 40 °F
Humidity 75%
Rainfall 0.11 in
Snow Depth Not available.
7:48 AM 4:53 PM
Waning Gibbous, 50% visible
SPECI KTCM 192221Z AUTO 19014KT 10SM -RA BKN031 OVC039 09/07 A2950 RMK AO2 RAB2159E08RAB21

Get Your Daily Forecast Email!

Thanks for signing up!

Be on the lookout for a verification email in your inbox.

You'll start receiving the daily forecast at 8 AM.

×

10-Day Weather Forecast

Almanac

Astronomy

Jan. 19, 2017 Rise Set
Actual Time
Civil Twilight
Nautical Twilight
Astronomical Twilight
Moon
Length of Visible Light
Length of Day
Tomorrow will be .
, % of the Moon is Illuminated

Today's Extremes

State Highs State Lows

Community

WunderPhotos

Upload Photos

1,962,540 photos uploaded!

WunderBlog® & News

Nearby

Air Quality

  Air Quality AQ Index Pollutant
Not available.

Snow Depth

Station Depth Elevation

Earthquake Activity

City Distance Mag. Time & Date
Minimum magnitude displayed is 2.5.

Coastal Water Temperatures

Place Temperature

Stations

Nearby Weather Stations

Station Location Temp. Windchill Dew Point Humidity Wind Precip. Elev Updated Type
                   

Watches & Warnings

There are currently no watches in effect.